Time;durP1;ratioP1;P1;durP2;ratioP2;P2;SDS_P1;SDS_P2;PMS_P1;PMS_P2;Temp;Humidity;BMP_temperature;BMP_pressure;BME280_temperature;BME280_humidity;BME280_pressure;Samples;Min_cycle;Max_cycle;Signal;HPM_P1;HPM_P2
2021/09/24 00:01:45;;;;;;;4.88;1.88;;;;;;;;;;4691868;30;32408;-64
2021/09/24 00:04:12;;;;;;;5.35;2.05;;;;;;;;;;4692389;30;32516;-60
2021/09/24 00:06:38;;;;;;;;;;;;;;;;;;4692622;30;34649;-61
2021/09/24 00:09:05;;;;;;;3.72;1.52;;;;;;;;;;4692549;30;32521;-61
2021/09/24 00:11:32;;;;;;;5.53;1.77;;;;;;;;;;4692062;30;32520;-62
2021/09/24 00:14:00;;;;;;;4.95;2.03;;;;;;;;;;4692284;30;32451;-63
2021/09/24 00:16:27;;;;;;;4.82;1.80;;;;;;;;;;4692244;30;32529;-61
2021/09/24 00:18:53;;;;;;;3.65;1.88;;;;;;;;;;4691252;30;32632;-63
2021/09/24 00:21:20;;;;;;;1.90;1.23;;;;;;;;;;4691820;30;32652;-60
2021/09/24 00:23:47;;;;;;;4.60;1.63;;;;;;;;;;4691177;30;32342;-61
2021/09/24 00:26:14;;;;;;;7.43;2.25;;;;;;;;;;4691151;30;32505;-61
2021/09/24 00:28:40;;;;;;;4.65;2.15;;;;;;;;;;4691930;30;35206;-61
2021/09/24 00:31:10;;;;;;;6.53;2.33;;;;;;;;;;4691305;30;32403;-61
2021/09/24 00:33:37;;;;;;;3.55;1.95;;;;;;;;;;4691114;30;32711;-61
2021/09/24 00:36:06;;;;;;;3.80;1.73;;;;;;;;;;4691354;30;32424;-61
2021/09/24 00:38:37;;;;;;;6.75;1.92;;;;;;;;;;4690785;30;32335;-61
2021/09/24 00:41:05;;;;;;;4.72;1.92;;;;;;;;;;4692337;30;32468;-61
2021/09/24 00:43:32;;;;;;;4.47;1.80;;;;;;;;;;4691067;30;32382;-63
2021/09/24 00:45:58;;;;;;;4.60;1.60;;;;;;;;;;4686876;30;32400;-61
2021/09/24 00:48:26;;;;;;;6.38;2.15;;;;;;;;;;4691863;30;32486;-61
2021/09/24 00:50:53;;;;;;;2.45;1.77;;;;;;;;;;4687964;30;35389;-64
2021/09/24 00:53:19;;;;;;;4.85;1.88;;;;;;;;;;4691069;30;32534;-64
2021/09/24 00:55:47;;;;;;;4.10;1.60;;;;;;;;;;4691202;30;32684;-60
2021/09/24 00:58:13;;;;;;;5.90;1.77;;;;;;;;;;4691181;30;32472;-61
2021/09/24 01:00:40;;;;;;;6.65;1.63;;;;;;;;;;4690608;30;32741;-61
2021/09/24 01:03:07;;;;;;;4.55;1.75;;;;;;;;;;4692424;30;32332;-62
2021/09/24 01:05:35;;;;;;;7.22;2.15;;;;;;;;;;4690559;30;32837;-64
2021/09/24 01:08:02;;;;;;;2.42;1.67;;;;;;;;;;4689857;30;32848;-61
2021/09/24 01:10:29;;;;;;;4.10;1.70;;;;;;;;;;4689882;30;32542;-61
2021/09/24 01:12:56;;;;;;;7.45;1.92;;;;;;;;;;4691240;30;34497;-64
2021/09/24 01:15:22;;;;;;;4.00;1.75;;;;;;;;;;4691390;30;32869;-62
2021/09/24 01:17:49;;;;;;;4.40;2.00;;;;;;;;;;4691046;30;32553;-63
2021/09/24 01:20:21;;;;;;;5.20;2.25;;;;;;;;;;4692963;30;32597;-64
2021/09/24 01:22:50;;;;;;;4.05;1.70;;;;;;;;;;4694119;30;32535;-61
2021/09/24 01:25:18;;;;;;;7.57;2.15;;;;;;;;;;4694007;30;32593;-62
2021/09/24 01:27:45;;;;;;;4.70;1.95;;;;;;;;;;4692935;30;32831;-63
2021/09/24 01:30:14;;;;;;;6.28;2.25;;;;;;;;;;4693106;30;32428;-62
2021/09/24 01:32:41;;;;;;;9.38;1.77;;;;;;;;;;4692735;30;32537;-62
2021/09/24 01:35:10;;;;;;;3.72;1.92;;;;;;;;;;4692191;30;34120;-62
2021/09/24 01:37:38;;;;;;;5.50;1.70;;;;;;;;;;4693006;30;32685;-61
2021/09/24 01:40:11;;;;;;;5.30;1.63;;;;;;;;;;4693806;30;32485;-61
2021/09/24 01:42:38;;;;;;;4.60;2.05;;;;;;;;;;4693679;30;32806;-62
2021/09/24 01:45:06;;;;;;;6.97;1.90;;;;;;;;;;4693608;30;32562;-63
2021/09/24 01:47:32;;;;;;;3.67;2.08;;;;;;;;;;4693596;30;32669;-63
2021/09/24 01:49:59;;;;;;;5.88;1.75;;;;;;;;;;4693326;30;32675;-63
2021/09/24 01:52:26;;;;;;;3.40;1.85;;;;;;;;;;4692957;30;32486;-62
2021/09/24 01:54:52;;;;;;;3.50;1.80;;;;;;;;;;4685453;30;32653;-62
2021/09/24 01:57:20;;;;;;;3.13;1.70;;;;;;;;;;4694280;30;35664;-64
2021/09/24 01:59:47;;;;;;;4.93;2.08;;;;;;;;;;4693877;30;32480;-62
2021/09/24 02:02:13;;;;;;;3.28;1.40;;;;;;;;;;4693918;30;32842;-63
2021/09/24 02:04:40;;;;;;;4.05;1.73;;;;;;;;;;4693139;30;32399;-61
2021/09/24 02:07:06;;;;;;;2.65;1.65;;;;;;;;;;4693434;30;35018;-61
2021/09/24 02:09:33;;;;;;;5.30;1.90;;;;;;;;;;4693340;30;32689;-61
2021/09/24 02:12:00;;;;;;;4.88;1.65;;;;;;;;;;4693622;30;32760;-61
2021/09/24 02:14:27;;;;;;;5.43;1.65;;;;;;;;;;4692884;30;32634;-61
2021/09/24 02:16:54;;;;;;;3.78;1.50;;;;;;;;;;4692854;30;32526;-60
2021/09/24 02:19:21;;;;;;;5.75;1.67;;;;;;;;;;4692070;30;34545;-60
2021/09/24 02:21:48;;;;;;;5.15;1.85;;;;;;;;;;4693283;30;32482;-61
2021/09/24 02:24:15;;;;;;;3.80;1.73;;;;;;;;;;4692471;30;32428;-62
2021/09/24 02:26:42;;;;;;;3.47;1.90;;;;;;;;;;4693241;30;32759;-63
2021/09/24 02:29:08;;;;;;;6.70;1.85;;;;;;;;;;4692280;30;35193;-64
2021/09/24 02:31:36;;;;;;;8.15;2.08;;;;;;;;;;4693584;30;32449;-61
2021/09/24 02:34:03;;;;;;;5.55;1.85;;;;;;;;;;4692802;30;32451;-62
2021/09/24 02:36:29;;;;;;;6.80;2.55;;;;;;;;;;4692435;30;32551;-62
2021/09/24 02:38:56;;;;;;;4.35;1.73;;;;;;;;;;4691120;30;32565;-62
2021/09/24 02:41:23;;;;;;;4.10;1.65;;;;;;;;;;4692199;30;34179;-64
2021/09/24 02:43:49;;;;;;;3.20;1.85;;;;;;;;;;4691195;30;32437;-62
2021/09/24 02:46:16;;;;;;;4.07;1.98;;;;;;;;;;4693493;30;32490;-62
2021/09/24 02:48:44;;;;;;;4.93;1.75;;;;;;;;;;4692926;30;32455;-61
2021/09/24 02:51:11;;;;;;;6.75;1.88;;;;;;;;;;4693889;30;33930;-61
2021/09/24 02:53:37;;;;;;;5.28;1.80;;;;;;;;;;4692560;30;32693;-62
2021/09/24 02:56:05;;;;;;;5.10;1.73;;;;;;;;;;4691677;30;32398;-62
2021/09/24 02:58:33;;;;;;;4.53;1.70;;;;;;;;;;4691373;30;32460;-60
2021/09/24 03:01:00;;;;;;;4.47;1.77;;;;;;;;;;4690907;30;32491;-61
2021/09/24 03:03:26;;;;;;;7.68;2.33;;;;;;;;;;4696182;30;34759;-61
2021/09/24 03:05:54;;;;;;;4.40;1.85;;;;;;;;;;4691818;30;32284;-61
2021/09/24 03:08:21;;;;;;;6.55;1.70;;;;;;;;;;4692776;30;32669;-62
2021/09/24 03:10:47;;;;;;;2.33;1.63;;;;;;;;;;4693701;30;32901;-62
2021/09/24 03:13:14;;;;;;;3.35;1.52;;;;;;;;;;4693075;30;34833;-61
2021/09/24 03:15:41;;;;;;;11.32;2.20;;;;;;;;;;4693172;30;32794;-63
2021/09/24 03:18:07;;;;;;;8.07;1.75;;;;;;;;;;4693873;30;32444;-62
2021/09/24 03:20:33;;;;;;;2.47;1.75;;;;;;;;;;4694746;30;32375;-62
2021/09/24 03:23:02;;;;;;;7.90;2.05;;;;;;;;;;4693347;30;32428;-63
2021/09/24 03:25:28;;;;;;;9.27;1.98;;;;;;;;;;4691900;30;34312;-63
2021/09/24 03:27:55;;;;;;;4.40;1.95;;;;;;;;;;4692386;30;32457;-62
2021/09/24 03:30:21;;;;;;;4.53;1.83;;;;;;;;;;4692098;30;32605;-63
2021/09/24 03:32:48;;;;;;;9.02;1.92;;;;;;;;;;4692096;30;32407;-62
2021/09/24 03:35:14;;;;;;;3.35;2.22;;;;;;;;;;4691448;30;34103;-63
2021/09/24 03:37:41;;;;;;;6.30;1.90;;;;;;;;;;4690547;30;32461;-62
2021/09/24 03:40:11;;;;;;;;;;;;;;;;;;4690350;30;32550;-62
2021/09/24 03:42:37;;;;;;;6.38;1.85;;;;;;;;;;4690518;30;32624;-64
2021/09/24 03:45:05;;;;;;;3.72;1.38;;;;;;;;;;4691527;30;32739;-61
2021/09/24 03:47:31;;;;;;;5.72;1.85;;;;;;;;;;4692156;30;34675;-63
2021/09/24 03:50:00;;;;;;;3.88;1.60;;;;;;;;;;4692227;30;32494;-62
2021/09/24 03:52:27;;;;;;;1.98;1.55;;;;;;;;;;4691596;30;32436;-62
2021/09/24 03:54:55;;;;;;;3.78;1.45;;;;;;;;;;4691711;30;32480;-62
2021/09/24 03:57:23;;;;;;;6.75;1.90;;;;;;;;;;4690998;30;34155;-61
2021/09/24 03:59:50;;;;;;;5.03;1.67;;;;;;;;;;4691666;30;32974;-63
2021/09/24 04:02:16;;;;;;;3.78;1.85;;;;;;;;;;4691525;30;32814;-62
2021/09/24 04:04:43;;;;;;;3.65;1.80;;;;;;;;;;4674750;30;32526;-62
2021/09/24 04:07:09;;;;;;;5.75;1.77;;;;;;;;;;4687645;30;32515;-62
2021/09/24 04:09:38;;;;;;;3.45;1.63;;;;;;;;;;4692202;30;34239;-62
2021/09/24 04:12:05;;;;;;;6.55;1.88;;;;;;;;;;4690274;30;32905;-63
2021/09/24 04:14:33;;;;;;;6.50;1.60;;;;;;;;;;4692135;30;32461;-62
2021/09/24 04:17:00;;;;;;;3.22;1.65;;;;;;;;;;4691889;30;32885;-62
2021/09/24 04:19:26;;;;;;;4.53;1.80;;;;;;;;;;4690905;30;35399;-63
2021/09/24 04:21:53;;;;;;;4.20;1.75;;;;;;;;;;4693204;30;33204;-63
2021/09/24 04:24:19;;;;;;;4.22;1.60;;;;;;;;;;4691771;30;32638;-65
2021/09/24 04:26:46;;;;;;;4.03;2.05;;;;;;;;;;4690929;30;32530;-63
2021/09/24 04:29:12;;;;;;;2.90;1.70;;;;;;;;;;4691495;30;32407;-64
2021/09/24 04:31:40;;;;;;;3.42;2.00;;;;;;;;;;4692439;30;35113;-65
2021/09/24 04:34:09;;;;;;;3.88;1.92;;;;;;;;;;4692632;30;32742;-63
2021/09/24 04:36:35;;;;;;;4.32;2.00;;;;;;;;;;4688021;30;32338;-61
2021/09/24 04:39:03;;;;;;;7.32;1.90;;;;;;;;;;4688772;30;32538;-61
2021/09/24 04:41:29;;;;;;;3.80;1.65;;;;;;;;;;4691355;30;36001;-62
2021/09/24 04:43:56;;;;;;;7.05;1.90;;;;;;;;;;4690181;30;32474;-63
2021/09/24 04:46:22;;;;;;;3.75;1.83;;;;;;;;;;4688117;30;32714;-62
2021/09/24 04:48:52;;;;;;;8.65;1.95;;;;;;;;;;4689520;30;33144;-62
2021/09/24 04:51:18;;;;;;;10.23;2.25;;;;;;;;;;4690444;30;33154;-62
2021/09/24 04:53:45;;;;;;;6.57;2.00;;;;;;;;;;4690304;30;34347;-62
2021/09/24 04:56:11;;;;;;;3.33;1.70;;;;;;;;;;4694140;30;32869;-61
2021/09/24 04:58:38;;;;;;;6.38;2.05;;;;;;;;;;4693153;30;32471;-64
2021/09/24 05:01:04;;;;;;;8.70;2.08;;;;;;;;;;4696574;30;32796;-63
2021/09/24 05:03:31;;;;;;;5.07;1.60;;;;;;;;;;4692430;30;35944;-62
2021/09/24 05:05:58;;;;;;;7.30;1.90;;;;;;;;;;4689872;30;32458;-64
2021/09/24 05:08:26;;;;;;;3.85;2.03;;;;;;;;;;4690170;30;32463;-62
2021/09/24 05:10:54;;;;;;;7.43;2.00;;;;;;;;;;4693243;30;32361;-65
2021/09/24 05:13:20;;;;;;;4.82;2.20;;;;;;;;;;4692536;30;32530;-61
2021/09/24 05:15:47;;;;;;;6.75;2.20;;;;;;;;;;4693047;30;34442;-61
2021/09/24 05:18:13;;;;;;;7.95;2.08;;;;;;;;;;4692346;30;32758;-61
2021/09/24 05:20:40;;;;;;;4.60;1.70;;;;;;;;;;4694052;30;32489;-62
2021/09/24 05:23:08;;;;;;;5.00;2.05;;;;;;;;;;4693857;30;32501;-62
2021/09/24 05:25:36;;;;;;;6.47;2.13;;;;;;;;;;4692785;30;34044;-62
2021/09/24 05:28:03;;;;;;;4.40;2.25;;;;;;;;;;4692051;30;33081;-61
2021/09/24 05:30:30;;;;;;;6.97;1.75;;;;;;;;;;4693721;30;32468;-64
2021/09/24 05:32:58;;;;;;;7.43;1.92;;;;;;;;;;4692985;30;32616;-63
2021/09/24 05:35:25;;;;;;;5.35;1.88;;;;;;;;;;4693539;30;32797;-61
2021/09/24 05:37:51;;;;;;;3.97;1.73;;;;;;;;;;4692314;30;35805;-61
2021/09/24 05:40:19;;;;;;;5.80;1.73;;;;;;;;;;4694582;30;32653;-63
2021/09/24 05:42:47;;;;;;;6.18;1.85;;;;;;;;;;4694200;30;32483;-62
2021/09/24 05:45:14;;;;;;;4.22;1.70;;;;;;;;;;4693897;30;32484;-62
2021/09/24 05:47:41;;;;;;;4.13;1.55;;;;;;;;;;4692169;30;35010;-61
2021/09/24 05:50:12;;;;;;;7.88;2.08;;;;;;;;;;4693280;30;32404;-61
2021/09/24 05:52:40;;;;;;;3.78;1.65;;;;;;;;;;4693649;30;32878;-64
2021/09/24 05:55:08;;;;;;;6.53;2.00;;;;;;;;;;4692193;30;32482;-62
2021/09/24 05:57:37;;;;;;;8.32;2.00;;;;;;;;;;4692981;30;32383;-63
2021/09/24 06:00:06;;;;;;;4.35;1.80;;;;;;;;;;4572361;30;64101;-63
2021/09/24 06:02:32;;;;;;;4.43;1.88;;;;;;;;;;4678061;30;32508;-62
2021/09/24 06:04:59;;;;;;;6.97;1.85;;;;;;;;;;4675548;30;32511;-63
2021/09/24 06:07:25;;;;;;;5.10;2.03;;;;;;;;;;4677256;30;32340;-62
2021/09/24 06:09:52;;;;;;;7.40;1.77;;;;;;;;;;4672536;30;34108;-62
2021/09/24 06:12:19;;;;;;;5.45;1.77;;;;;;;;;;4676473;30;32535;-63
2021/09/24 06:14:47;;;;;;;3.95;1.73;;;;;;;;;;4670204;30;32690;-62
2021/09/24 06:17:14;;;;;;;7.30;1.65;;;;;;;;;;4603669;30;32635;-62
2021/09/24 06:19:40;;;;;;;;;;;;;;;;;;4682254;30;32557;-61
2021/09/24 06:22:06;;;;;;;;;;;;;;;;;;4674920;30;35899;-62
2021/09/24 06:24:33;;;;;;;6.25;1.50;;;;;;;;;;4675562;30;32369;-62
2021/09/24 06:27:14;;;;;;;8.80;2.10;;;;;;;;;;4669648;30;32606;-63
2021/09/24 06:29:41;;;;;;;3.47;1.60;;;;;;;;;;4674858;30;32759;-65
2021/09/24 06:32:09;;;;;;;4.55;1.70;;;;;;;;;;4675800;30;34970;-62
2021/09/24 06:34:36;;;;;;;6.53;2.72;;;;;;;;;;4669715;30;32978;-62
2021/09/24 06:37:02;;;;;;;7.10;1.98;;;;;;;;;;4677665;30;32622;-64
2021/09/24 06:39:29;;;;;;;7.82;1.85;;;;;;;;;;4675901;30;32492;-62
2021/09/24 06:41:56;;;;;;;9.45;1.60;;;;;;;;;;4673026;30;32889;-64
2021/09/24 06:44:23;;;;;;;10.27;2.08;;;;;;;;;;4675774;30;34149;-63
2021/09/24 06:46:49;;;;;;;8.57;2.03;;;;;;;;;;4676908;30;32642;-62
2021/09/24 06:49:22;;;;;;;10.70;2.38;;;;;;;;;;4674185;30;32610;-62
2021/09/24 06:51:49;;;;;;;7.38;1.75;;;;;;;;;;4675030;30;33372;-63
2021/09/24 06:54:16;;;;;;;8.27;1.70;;;;;;;;;;4674942;30;34253;-62
2021/09/24 06:56:43;;;;;;;6.25;2.67;;;;;;;;;;4672663;30;32550;-63
2021/09/24 06:59:09;;;;;;;8.77;1.83;;;;;;;;;;4672074;30;32642;-63
2021/09/24 07:01:36;;;;;;;5.07;1.70;;;;;;;;;;4673395;30;32639;-61
2021/09/24 07:04:02;;;;;;;7.78;1.75;;;;;;;;;;4674428;30;32477;-62
2021/09/24 07:06:31;;;;;;;4.85;1.63;;;;;;;;;;4670395;30;35563;-64
2021/09/24 07:08:58;;;;;;;8.15;1.88;;;;;;;;;;4673359;30;32677;-62
2021/09/24 07:11:24;;;;;;;4.63;1.80;;;;;;;;;;4673921;30;32484;-64
2021/09/24 07:13:51;;;;;;;10.10;2.40;;;;;;;;;;4674826;30;32643;-63
2021/09/24 07:16:18;;;;;;;10.35;2.80;;;;;;;;;;4679015;30;34428;-63
2021/09/24 07:18:45;;;;;;;8.30;2.28;;;;;;;;;;4668174;30;32558;-64
2021/09/24 07:21:11;;;;;;;7.95;2.22;;;;;;;;;;4673547;30;32474;-64
2021/09/24 07:23:41;;;;;;;7.90;2.00;;;;;;;;;;4675785;30;32851;-62
2021/09/24 07:26:07;;;;;;;5.57;2.33;;;;;;;;;;4671840;30;32689;-62
2021/09/24 07:28:34;;;;;;;6.00;2.25;;;;;;;;;;4669520;30;33944;-62
2021/09/24 07:31:00;;;;;;;5.88;2.00;;;;;;;;;;4673242;30;32836;-64
2021/09/24 07:33:27;;;;;;;7.60;1.92;;;;;;;;;;4670918;30;32520;-63
2021/09/24 07:35:53;;;;;;;6.10;2.30;;;;;;;;;;4672341;30;33018;-62
2021/09/24 07:38:21;;;;;;;4.97;1.73;;;;;;;;;;4672696;30;34643;-65
2021/09/24 07:40:50;;;;;;;5.18;1.83;;;;;;;;;;4671747;30;32592;-63
2021/09/24 07:43:17;;;;;;;5.20;1.88;;;;;;;;;;4671300;30;32612;-62
2021/09/24 07:45:43;;;;;;;10.35;2.10;;;;;;;;;;4671138;30;33322;-62
2021/09/24 07:48:10;;;;;;;5.45;1.73;;;;;;;;;;4672481;30;32659;-63
2021/09/24 07:50:37;;;;;;;8.85;2.40;;;;;;;;;;4673364;30;35605;-63
2021/09/24 07:53:03;;;;;;;6.45;2.00;;;;;;;;;;4670593;30;32520;-62
2021/09/24 07:55:30;;;;;;;5.63;2.13;;;;;;;;;;4671840;30;32436;-64
2021/09/24 07:57:58;;;;;;;7.03;1.85;;;;;;;;;;4671953;30;32451;-63
2021/09/24 08:00:26;;;;;;;5.22;2.03;;;;;;;;;;4670790;30;33987;-63
2021/09/24 08:02:54;;;;;;;8.52;2.10;;;;;;;;;;4673257;30;33345;-65
2021/09/24 08:05:20;;;;;;;4.07;1.90;;;;;;;;;;4671776;30;32816;-61
2021/09/24 08:07:47;;;;;;;7.00;2.58;;;;;;;;;;4672303;30;32936;-62
2021/09/24 08:10:13;;;;;;;7.75;2.33;;;;;;;;;;4672096;30;32491;-62
2021/09/24 08:12:40;;;;;;;3.47;2.25;;;;;;;;;;4673458;30;34717;-65
2021/09/24 08:15:10;;;;;;;7.20;1.85;;;;;;;;;;4673569;30;32654;-63
2021/09/24 08:17:36;;;;;;;6.00;1.95;;;;;;;;;;4671566;30;32874;-64
2021/09/24 08:20:04;;;;;;;3.88;2.03;;;;;;;;;;4669920;30;32451;-63
2021/09/24 08:22:34;;;;;;;7.00;2.22;;;;;;;;;;4671183;30;34898;-63
2021/09/24 08:25:01;;;;;;;6.18;2.13;;;;;;;;;;4670730;30;32534;-63
2021/09/24 08:27:27;;;;;;;7.55;2.35;;;;;;;;;;4673567;30;32452;-62
2021/09/24 08:29:54;;;;;;;6.15;2.20;;;;;;;;;;4674472;30;32524;-64
2021/09/24 08:32:22;;;;;;;7.45;2.25;;;;;;;;;;4673885;30;32690;-63
2021/09/24 08:34:48;;;;;;;6.53;2.40;;;;;;;;;;4674420;30;35978;-62
2021/09/24 08:37:14;;;;;;;5.82;2.15;;;;;;;;;;4673087;30;32846;-62
2021/09/24 08:39:41;;;;;;;9.43;2.45;;;;;;;;;;4674119;30;32380;-61
2021/09/24 08:42:08;;;;;;;7.03;2.45;;;;;;;;;;4674693;30;32544;-63
2021/09/24 08:44:34;;;;;;;5.75;2.47;;;;;;;;;;4673597;30;34165;-62
2021/09/24 08:47:01;;;;;;;9.90;2.78;;;;;;;;;;4674985;30;32484;-64
2021/09/24 08:49:29;;;;;;;7.50;2.33;;;;;;;;;;4674534;30;32700;-62
2021/09/24 08:51:55;;;;;;;9.30;2.78;;;;;;;;;;4673276;30;32554;-63
2021/09/24 08:54:22;;;;;;;7.72;2.20;;;;;;;;;;4675247;30;32657;-63
2021/09/24 08:56:49;;;;;;;7.15;2.45;;;;;;;;;;4673179;30;34417;-64
2021/09/24 08:59:16;;;;;;;5.35;2.17;;;;;;;;;;4674867;30;32790;-62
2021/09/24 09:01:59;;;;;;;10.85;2.20;;;;;;;;;;4674421;30;32627;-63
2021/09/24 09:04:35;;;;;;;5.72;2.47;;;;;;;;;;4673476;30;32457;-62
2021/09/24 09:07:13;;;;;;;5.22;2.30;;;;;;;;;;4674371;30;35006;-62
2021/09/24 09:09:42;;;;;;;7.32;2.30;;;;;;;;;;4672238;30;32493;-63
2021/09/24 09:12:11;;;;;;;7.13;2.70;;;;;;;;;;4673408;30;32852;-63
2021/09/24 09:14:38;;;;;;;10.00;2.47;;;;;;;;;;4674869;30;32516;-64
2021/09/24 09:17:30;;;;;;;7.40;2.50;;;;;;;;;;4675494;30;32696;-63
2021/09/24 09:20:33;;;;;;;8.63;2.90;;;;;;;;;;4673664;30;34060;-62
2021/09/24 09:23:10;;;;;;;6.95;2.55;;;;;;;;;;4661091;30;32803;-62
2021/09/24 09:25:40;;;;;;;12.85;2.90;;;;;;;;;;4675198;30;32628;-63
2021/09/24 09:28:11;;;;;;;7.97;2.72;;;;;;;;;;4668561;30;32647;-62
2021/09/24 09:30:39;;;;;;;5.90;2.47;;;;;;;;;;4674420;30;34202;-63
2021/09/24 09:33:10;;;;;;;6.05;2.63;;;;;;;;;;4673290;30;32479;-62
2021/09/24 09:35:42;;;;;;;6.43;2.65;;;;;;;;;;4675398;30;32509;-62
2021/09/24 09:38:18;;;;;;;4.90;2.72;;;;;;;;;;4673790;30;32810;-61
2021/09/24 09:40:45;;;;;;;7.10;2.90;;;;;;;;;;4672278;30;32491;-65
2021/09/24 09:43:19;;;;;;;;;;;;;;;;;;4673886;30;34659;-62
2021/09/24 09:45:45;;;;;;;6.05;2.78;;;;;;;;;;4673267;30;32809;-63
2021/09/24 09:48:13;;;;;;;9.35;2.75;;;;;;;;;;4673956;30;33311;-62
2021/09/24 09:50:42;;;;;;;8.57;2.78;;;;;;;;;;4673848;30;32854;-65
2021/09/24 09:53:13;;;;;;;5.65;2.58;;;;;;;;;;4671196;30;34236;-62
2021/09/24 09:55:41;;;;;;;8.75;3.28;;;;;;;;;;4674717;30;33314;-62
2021/09/24 09:58:11;;;;;;;9.40;2.95;;;;;;;;;;4673985;30;33229;-62
2021/09/24 10:01:03;;;;;;;7.07;2.83;;;;;;;;;;4673998;30;32525;-63
2021/09/24 10:03:36;;;;;;;9.15;2.88;;;;;;;;;;4674604;30;33211;-62
2021/09/24 10:06:19;;;;;;;9.15;2.90;;;;;;;;;;4675050;30;34173;-63
2021/09/24 10:08:46;;;;;;;9.13;3.30;;;;;;;;;;4672715;30;32509;-62
2021/09/24 10:11:14;;;;;;;7.20;2.78;;;;;;;;;;4673539;30;32485;-66
2021/09/24 10:13:52;;;;;;;8.55;3.28;;;;;;;;;;4675398;30;32589;-67
2021/09/24 10:16:21;;;;;;;5.13;2.78;;;;;;;;;;4671977;30;34759;-65
2021/09/24 10:18:48;;;;;;;8.73;3.05;;;;;;;;;;4674503;30;33451;-61
2021/09/24 10:21:16;;;;;;;7.65;2.58;;;;;;;;;;4675869;30;32526;-64
2021/09/24 10:23:43;;;;;;;9.30;2.90;;;;;;;;;;4673885;30;32405;-62
2021/09/24 10:26:18;;;;;;;6.47;2.70;;;;;;;;;;4675507;30;32663;-61
2021/09/24 10:28:46;;;;;;;8.35;2.65;;;;;;;;;;4675323;30;32740;-61
2021/09/24 10:31:17;;;;;;;7.53;3.35;;;;;;;;;;4673713;30;32902;-62
2021/09/24 10:33:50;;;;;;;7.03;3.47;;;;;;;;;;4675147;30;32603;-63
2021/09/24 10:36:49;;;;;;;6.35;2.55;;;;;;;;;;4672660;30;33127;-64
2021/09/24 10:39:42;;;;;;;8.55;3.25;;;;;;;;;;4671714;30;34121;-62
2021/09/24 10:42:20;;;;;;;6.65;3.10;;;;;;;;;;4660050;30;32359;-62
2021/09/24 10:45:00;;;;;;;8.63;3.03;;;;;;;;;;4674299;30;32650;-64
2021/09/24 10:48:02;;;;;;;5.82;2.30;;;;;;;;;;4671362;30;33854;-63
2021/09/24 10:50:56;;;;;;;8.35;3.13;;;;;;;;;;4670180;30;32652;-61
2021/09/24 10:53:27;;;;;;;6.20;2.95;;;;;;;;;;4674124;30;33823;-63
2021/09/24 10:56:30;;;;;;;7.90;2.92;;;;;;;;;;4675335;30;32598;-63
2021/09/24 10:58:58;;;;;;;8.77;2.88;;;;;;;;;;4672044;30;32542;-63
2021/09/24 11:01:39;;;;;;;5.93;2.72;;;;;;;;;;4672061;30;32676;-63
2021/09/24 11:04:10;;;;;;;5.40;2.58;;;;;;;;;;4675541;30;34870;-63
2021/09/24 11:06:40;;;;;;;9.32;3.65;;;;;;;;;;4674528;30;32730;-64
2021/09/24 11:09:10;;;;;;;7.97;2.83;;;;;;;;;;4672679;30;32572;-62
2021/09/24 11:11:41;;;;;;;5.25;2.85;;;;;;;;;;4663046;30;32885;-63
2021/09/24 11:14:27;;;;;;;4.78;3.10;;;;;;;;;;4674252;30;32451;-63
2021/09/24 11:16:54;;;;;;;6.93;3.05;;;;;;;;;;4673008;30;32590;-63
2021/09/24 11:19:43;;;;;;;9.95;2.85;;;;;;;;;;4671980;30;32919;-62
2021/09/24 11:22:22;;;;;;;7.15;3.13;;;;;;;;;;4674820;30;32888;-64
2021/09/24 11:25:10;;;;;;;7.97;3.38;;;;;;;;;;4673293;30;32632;-63
2021/09/24 11:27:40;;;;;;;7.22;3.38;;;;;;;;;;4674905;30;34268;-65
2021/09/24 11:30:42;;;;;;;7.45;2.78;;;;;;;;;;4672276;30;32347;-64
2021/09/24 11:33:09;;;;;;;5.68;3.13;;;;;;;;;;4671837;30;32535;-62
2021/09/24 11:35:44;;;;;;;5.03;2.70;;;;;;;;;;4674820;30;32452;-62
2021/09/24 11:38:18;;;;;;;6.50;3.45;;;;;;;;;;4672883;30;31998;-62
2021/09/24 11:40:53;;;;;;;8.55;2.97;;;;;;;;;;4667783;30;34117;-64
2021/09/24 11:43:25;;;;;;;6.78;2.83;;;;;;;;;;4675696;30;32656;-63
2021/09/24 11:45:52;;;;;;;6.40;3.05;;;;;;;;;;4669776;30;32546;-62
2021/09/24 11:48:30;;;;;;;6.90;2.92;;;;;;;;;;4673242;30;33038;-62
2021/09/24 11:51:13;;;;;;;6.88;2.70;;;;;;;;;;4683532;30;34774;-62
2021/09/24 11:53:55;;;;;;;7.93;3.00;;;;;;;;;;4672893;30;32450;-63
2021/09/24 11:56:32;;;;;;;7.60;2.75;;;;;;;;;;4673579;30;32459;-63
2021/09/24 11:59:04;;;;;;;5.97;3.15;;;;;;;;;;4672262;30;32393;-63
2021/09/24 12:01:31;;;;;;;7.43;2.85;;;;;;;;;;4673399;30;32431;-65
2021/09/24 12:03:59;;;;;;;6.00;2.80;;;;;;;;;;4671944;30;32599;-62
2021/09/24 12:06:33;;;;;;;5.50;2.78;;;;;;;;;;4672152;30;32532;-62
2021/09/24 12:09:08;;;;;;;6.10;2.67;;;;;;;;;;4673794;30;32556;-61
2021/09/24 12:11:48;;;;;;;4.72;2.53;;;;;;;;;;4670789;30;32445;-63
2021/09/24 12:14:14;;;;;;;;;;;;;;;;;;4673335;30;34241;-61
2021/09/24 12:16:42;;;;;;;6.50;2.55;;;;;;;;;;4670694;30;32458;-61
2021/09/24 12:19:11;;;;;;;5.00;2.72;;;;;;;;;;4672626;30;32568;-63
2021/09/24 12:21:50;;;;;;;5.43;2.42;;;;;;;;;;4673221;30;32493;-61
2021/09/24 12:24:22;;;;;;;8.10;3.08;;;;;;;;;;4669972;30;33192;-62
2021/09/24 12:27:02;;;;;;;5.38;2.30;;;;;;;;;;4670866;30;32661;-62
2021/09/24 12:29:29;;;;;;;6.47;2.83;;;;;;;;;;4671144;30;33404;-63
2021/09/24 12:31:58;;;;;;;4.18;2.83;;;;;;;;;;4671957;30;32710;-62
2021/09/24 12:34:39;;;;;;;6.13;2.92;;;;;;;;;;4672438;30;32668;-62
2021/09/24 12:37:06;;;;;;;6.13;2.67;;;;;;;;;;4672049;30;34713;-64
2021/09/24 12:39:38;;;;;;;4.20;3.00;;;;;;;;;;4670467;30;32831;-65
2021/09/24 12:42:08;;;;;;;5.20;2.20;;;;;;;;;;4669910;30;32406;-65
2021/09/24 12:44:48;;;;;;;3.45;2.10;;;;;;;;;;4672436;30;32619;-64
2021/09/24 12:47:21;;;;;;;8.23;2.85;;;;;;;;;;4669056;30;34913;-64
2021/09/24 12:49:48;;;;;;;4.28;2.65;;;;;;;;;;4684919;30;32859;-63
2021/09/24 12:52:14;;;;;;;5.50;2.25;;;;;;;;;;4673453;30;32517;-66
2021/09/24 12:54:42;;;;;;;5.00;2.45;;;;;;;;;;4671806;30;32414;-65
2021/09/24 12:57:13;;;;;;;6.03;2.80;;;;;;;;;;4666694;30;32693;-64
2021/09/24 12:59:40;;;;;;;4.70;2.40;;;;;;;;;;4671099;30;33939;-67
2021/09/24 13:02:06;;;;;;;4.70;2.33;;;;;;;;;;4671625;30;32659;-64
2021/09/24 13:04:34;;;;;;;4.80;2.50;;;;;;;;;;4674248;30;32620;-63
2021/09/24 13:07:01;;;;;;;4.15;2.25;;;;;;;;;;4672863;30;32689;-64
2021/09/24 13:09:29;;;;;;;9.85;2.88;;;;;;;;;;4673022;30;35511;-66
2021/09/24 13:11:57;;;;;;;6.38;2.25;;;;;;;;;;4674742;30;32821;-64
2021/09/24 13:14:25;;;;;;;3.55;2.33;;;;;;;;;;4680380;30;32934;-62
2021/09/24 13:16:52;;;;;;;3.17;2.28;;;;;;;;;;4677080;30;33111;-62
2021/09/24 13:19:18;;;;;;;3.13;2.28;;;;;;;;;;4676792;30;32607;-63
2021/09/24 13:21:45;;;;;;;6.00;2.17;;;;;;;;;;4675769;30;34044;-64
2021/09/24 13:24:11;;;;;;;4.45;2.22;;;;;;;;;;4677717;30;32605;-63
2021/09/24 13:26:38;;;;;;;3.38;2.33;;;;;;;;;;4676933;30;32607;-65
2021/09/24 13:29:07;;;;;;;4.43;2.30;;;;;;;;;;4688893;30;32587;-65
2021/09/24 13:31:36;;;;;;;5.45;2.40;;;;;;;;;;4674676;30;34996;-62
2021/09/24 13:34:05;;;;;;;4.93;2.63;;;;;;;;;;4673937;30;32585;-65
2021/09/24 13:36:32;;;;;;;5.07;2.95;;;;;;;;;;4689160;30;32824;-61
2021/09/24 13:38:59;;;;;;;6.20;2.78;;;;;;;;;;4673880;30;32553;-62
2021/09/24 13:41:26;;;;;;;9.30;3.10;;;;;;;;;;4675849;30;32522;-64
2021/09/24 13:43:52;;;;;;;5.55;2.70;;;;;;;;;;4673573;30;34708;-66
2021/09/24 13:46:19;;;;;;;6.28;2.50;;;;;;;;;;4672592;30;33249;-63
2021/09/24 13:48:47;;;;;;;6.70;2.78;;;;;;;;;;4676253;30;32479;-65
2021/09/24 13:51:13;;;;;;;5.45;2.65;;;;;;;;;;4674002;30;32417;-65
2021/09/24 13:53:40;;;;;;;8.05;3.08;;;;;;;;;;4674068;30;34283;-62
2021/09/24 13:56:07;;;;;;;6.10;2.47;;;;;;;;;;4677014;30;32650;-62
2021/09/24 13:58:34;;;;;;;5.70;2.78;;;;;;;;;;4669814;30;33731;-62
2021/09/24 14:01:00;;;;;;;4.40;2.22;;;;;;;;;;4671581;30;33082;-62
2021/09/24 14:03:27;;;;;;;5.40;2.35;;;;;;;;;;4676125;30;32779;-65
2021/09/24 14:05:55;;;;;;;4.57;2.50;;;;;;;;;;4670527;30;35445;-65
2021/09/24 14:08:21;;;;;;;6.88;2.63;;;;;;;;;;4675641;30;32522;-63
2021/09/24 14:10:48;;;;;;;4.07;2.63;;;;;;;;;;4676386;30;33031;-63
2021/09/24 14:13:15;;;;;;;3.83;2.50;;;;;;;;;;4676965;30;32826;-64
2021/09/24 14:15:42;;;;;;;5.82;2.75;;;;;;;;;;4671450;30;35003;-66
2021/09/24 14:18:11;;;;;;;3.50;2.60;;;;;;;;;;4673511;30;32670;-62
2021/09/24 14:20:38;;;;;;;4.85;2.80;;;;;;;;;;4674020;30;32586;-63
2021/09/24 14:23:06;;;;;;;4.35;2.10;;;;;;;;;;4672930;30;32538;-62
2021/09/24 14:25:33;;;;;;;6.43;2.92;;;;;;;;;;4672740;30;32586;-62
2021/09/24 14:28:00;;;;;;;6.60;2.80;;;;;;;;;;4676315;30;34845;-64
2021/09/24 14:30:26;;;;;;;4.80;2.70;;;;;;;;;;4674661;30;32714;-65
2021/09/24 14:32:53;;;;;;;5.22;2.58;;;;;;;;;;4676031;30;32829;-66
2021/09/24 14:35:19;;;;;;;6.68;2.40;;;;;;;;;;4674690;30;32568;-64
2021/09/24 14:37:48;;;;;;;4.43;2.67;;;;;;;;;;4671742;30;34773;-62
2021/09/24 14:40:19;;;;;;;6.50;2.70;;;;;;;;;;4675018;30;32941;-63
2021/09/24 14:42:48;;;;;;;5.03;2.33;;;;;;;;;;4673232;30;32458;-63
2021/09/24 14:45:16;;;;;;;5.45;2.22;;;;;;;;;;4673208;30;33083;-65
2021/09/24 14:47:42;;;;;;;5.43;2.40;;;;;;;;;;4676259;30;32491;-67
2021/09/24 14:50:10;;;;;;;6.93;2.92;;;;;;;;;;4675181;30;35464;-65
2021/09/24 14:52:37;;;;;;;6.60;2.60;;;;;;;;;;4675595;30;32403;-64
2021/09/24 14:55:05;;;;;;;6.25;2.95;;;;;;;;;;4673313;30;32981;-63
2021/09/24 14:57:33;;;;;;;6.65;3.38;;;;;;;;;;4670331;30;32571;-65